createdAt,value
2018-02-25T00:01:48.408Z,102762
2018-02-25T00:04:16.321Z,102772
2018-02-25T00:06:44.264Z,102754
2018-02-25T00:09:12.161Z,102769
2018-02-25T00:11:40.062Z,102768
2018-02-25T00:14:07.980Z,102759
2018-02-25T00:16:35.888Z,102764
2018-02-25T00:19:03.787Z,102754
2018-02-25T00:21:31.692Z,102761
2018-02-25T00:23:59.600Z,102773
2018-02-25T00:26:27.572Z,102773
2018-02-25T00:28:55.473Z,102763
2018-02-25T00:31:23.368Z,102755
2018-02-25T00:33:51.793Z,102760
2018-02-25T00:36:19.714Z,102772
2018-02-25T00:38:47.622Z,102773
2018-02-25T00:41:22.417Z,102760
2018-02-25T00:43:50.311Z,102764
2018-02-25T00:46:18.231Z,102770
2018-02-25T00:48:46.144Z,102778
2018-02-25T00:51:14.053Z,102781
2018-02-25T00:53:41.992Z,102779
2018-02-25T00:56:09.911Z,102769
2018-02-25T00:58:37.821Z,102778
2018-02-25T01:01:05.719Z,102781
2018-02-25T01:03:33.612Z,102775
2018-02-25T01:06:01.521Z,102769
2018-02-25T01:08:29.419Z,102764
2018-02-25T01:10:57.312Z,102774
2018-02-25T01:13:25.242Z,102778
2018-02-25T01:15:53.143Z,102766
2018-02-25T01:18:21.049Z,102765
2018-02-25T01:20:49.022Z,102771
2018-02-25T01:23:16.923Z,102770
2018-02-25T01:25:44.824Z,102767
2018-02-25T01:28:12.724Z,102763
2018-02-25T01:30:40.628Z,102763
2018-02-25T01:33:08.529Z,102752
2018-02-25T01:35:36.420Z,102760
2018-02-25T01:38:04.324Z,102758
2018-02-25T01:40:32.262Z,102760
2018-02-25T01:43:00.150Z,102750
2018-02-25T01:45:28.048Z,102749
2018-02-25T01:47:55.964Z,102760
2018-02-25T01:50:23.864Z,102757
2018-02-25T01:52:52.100Z,102758
2018-02-25T01:55:19.995Z,102758
2018-02-25T01:57:47.900Z,102759
2018-02-25T02:00:15.795Z,102763
2018-02-25T02:02:43.712Z,102759
2018-02-25T02:05:11.616Z,102760
2018-02-25T02:07:39.513Z,102760
2018-02-25T02:10:07.429Z,102758
2018-02-25T02:12:35.323Z,102756
2018-02-25T02:15:03.237Z,102756
2018-02-25T02:17:31.135Z,102749
2018-02-25T02:19:59.029Z,102751
2018-02-25T02:22:26.924Z,102763
2018-02-25T02:24:54.892Z,102752
2018-02-25T02:27:22.797Z,102751
2018-02-25T02:29:50.697Z,102751
2018-02-25T02:32:18.617Z,102740
2018-02-25T02:34:46.524Z,102742
2018-02-25T02:37:14.438Z,102731
2018-02-25T02:39:42.358Z,102737
2018-02-25T02:42:10.260Z,102745
2018-02-25T02:44:38.162Z,102738
2018-02-25T02:47:06.055Z,102743
2018-02-25T02:49:33.953Z,102742
2018-02-25T02:52:02.036Z,102737
2018-02-25T02:54:29.942Z,102737
2018-02-25T02:56:57.858Z,102737
2018-02-25T02:59:25.773Z,102734
2018-02-25T03:01:53.742Z,102740
2018-02-25T03:04:21.611Z,102744
2018-02-25T03:06:49.522Z,102745
2018-02-25T03:09:17.437Z,102749
2018-02-25T03:11:45.329Z,102749
2018-02-25T03:14:13.229Z,102740
2018-02-25T03:16:41.128Z,102745
2018-02-25T03:19:09.028Z,102741
2018-02-25T03:21:36.921Z,102757
2018-02-25T03:24:04.812Z,102752
2018-02-25T03:26:32.733Z,102738
2018-02-25T03:29:00.644Z,102739
2018-02-25T03:31:28.542Z,102738
2018-02-25T03:33:56.460Z,102738
2018-02-25T03:36:24.356Z,102736
2018-02-25T03:38:52.276Z,102739
2018-02-25T03:41:20.168Z,102734
2018-02-25T03:43:48.060Z,102744
2018-02-25T03:46:15.953Z,102752
2018-02-25T03:48:43.856Z,102741
2018-02-25T03:51:11.768Z,102743
2018-02-25T03:53:39.669Z,102736
2018-02-25T03:56:07.571Z,102732
2018-02-25T03:58:35.460Z,102740
2018-02-25T04:01:03.356Z,102745
2018-02-25T04:03:31.582Z,102738
2018-02-25T04:05:59.494Z,102736
2018-02-25T04:08:27.393Z,102741
2018-02-25T04:10:55.356Z,102736
2018-02-25T04:13:23.260Z,102745
2018-02-25T04:15:51.163Z,102746
2018-02-25T04:18:19.059Z,102749
2018-02-25T04:20:46.995Z,102753
2018-02-25T04:23:14.889Z,102752
2018-02-25T04:25:42.785Z,102751
2018-02-25T04:28:10.689Z,102748
2018-02-25T04:30:38.586Z,102747
2018-02-25T04:33:06.484Z,102751
2018-02-25T04:35:34.394Z,102773
2018-02-25T04:38:02.297Z,102752
2018-02-25T04:40:30.228Z,102765
2018-02-25T04:42:58.136Z,102754
2018-02-25T04:45:26.028Z,102756
2018-02-25T04:47:53.932Z,102746
2018-02-25T04:50:21.832Z,102756
2018-02-25T04:52:49.728Z,102743
2018-02-25T04:55:17.625Z,102745
2018-02-25T04:57:45.560Z,102738
2018-02-25T05:00:20.333Z,102741
2018-02-25T05:02:48.245Z,102833
2018-02-25T05:05:16.160Z,102742
2018-02-25T05:07:44.052Z,102746
2018-02-25T05:10:18.840Z,102753
2018-02-25T05:12:46.752Z,102749
2018-02-25T05:15:14.668Z,102747
2018-02-25T05:17:42.580Z,102765
2018-02-25T05:20:10.501Z,102764
2018-02-25T05:22:38.476Z,102760
2018-02-25T05:25:06.385Z,102774
2018-02-25T05:27:34.333Z,102770
2018-02-25T05:30:02.250Z,102766
2018-02-25T05:32:30.156Z,102761
2018-02-25T05:34:58.070Z,102764
2018-02-25T05:37:25.981Z,102760
2018-02-25T05:39:53.884Z,102759
2018-02-25T05:42:21.780Z,102760
2018-02-25T05:44:49.678Z,102767
2018-02-25T05:47:17.573Z,102754
2018-02-25T05:49:45.478Z,102756
2018-02-25T05:52:13.821Z,102761
2018-02-25T05:54:41.750Z,102766
2018-02-25T05:57:09.644Z,102761
2018-02-25T05:59:37.548Z,102759
2018-02-25T06:02:05.460Z,102756
2018-02-25T06:04:33.360Z,102756
2018-02-25T06:07:01.285Z,102764
2018-02-25T06:09:29.173Z,102765
2018-02-25T06:11:57.101Z,102766
2018-02-25T06:14:25.008Z,102766
2018-02-25T06:16:52.912Z,102770
2018-02-25T06:19:20.800Z,102758
2018-02-25T06:21:48.917Z,102766
2018-02-25T06:24:16.839Z,102767
2018-02-25T06:26:44.748Z,102773
2018-02-25T06:29:12.652Z,102776
2018-02-25T06:31:40.564Z,102771
2018-02-25T06:34:08.455Z,102778
2018-02-25T06:36:36.348Z,102771
2018-02-25T06:39:04.246Z,102773
2018-02-25T06:41:32.142Z,102776
2018-02-25T06:44:00.044Z,102785
2018-02-25T06:46:27.956Z,102771
2018-02-25T06:48:55.854Z,102778
2018-02-25T06:51:24.032Z,102775
2018-02-25T06:53:51.925Z,102787
2018-02-25T06:56:19.829Z,102776
2018-02-25T06:58:47.729Z,102779
2018-02-25T07:01:15.655Z,102780
2018-02-25T07:03:43.548Z,102775
2018-02-25T07:06:11.520Z,102777
2018-02-25T07:08:39.416Z,102781
2018-02-25T07:11:07.580Z,102787
2018-02-25T07:13:35.484Z,102781
2018-02-25T07:16:03.376Z,102791
2018-02-25T07:18:31.281Z,102785
2018-02-25T07:20:59.182Z,102792
2018-02-25T07:23:27.087Z,102797
2018-02-25T07:25:54.977Z,102797
2018-02-25T07:28:22.874Z,102789
2018-02-25T07:30:50.773Z,102795
2018-02-25T07:33:18.672Z,102800
2018-02-25T07:35:46.564Z,102795
2018-02-25T07:38:14.468Z,102808
2018-02-25T07:40:42.360Z,102811
2018-02-25T07:43:10.249Z,102809
2018-02-25T07:45:38.133Z,102810
2018-02-25T07:48:06.022Z,102808
2018-02-25T07:50:33.922Z,102814
2018-02-25T07:53:01.820Z,102810
2018-02-25T07:55:29.736Z,102807
2018-02-25T07:57:57.628Z,102808
2018-02-25T08:00:25.528Z,102807
2018-02-25T08:02:53.424Z,102819
2018-02-25T08:05:21.356Z,102815
2018-02-25T08:07:49.273Z,102821
2018-02-25T08:10:17.176Z,102822
2018-02-25T08:12:45.065Z,102819
2018-02-25T08:15:12.967Z,102823
2018-02-25T08:17:40.865Z,102827
2018-02-25T08:20:09.185Z,102826
2018-02-25T08:22:37.088Z,102832
2018-02-25T08:25:05.001Z,102831
2018-02-25T08:27:32.903Z,102829
2018-02-25T08:30:00.804Z,102827
2018-02-25T08:32:28.696Z,102834
2018-02-25T08:34:56.584Z,102831
2018-02-25T08:37:24.969Z,102827
2018-02-25T08:39:52.865Z,102841
2018-02-25T08:42:20.758Z,102833
2018-02-25T08:44:48.648Z,102831
2018-02-25T08:47:16.546Z,102827
2018-02-25T08:49:44.488Z,102825
2018-02-25T08:52:12.377Z,102815
2018-02-25T08:54:40.277Z,102821
2018-02-25T08:57:08.258Z,102816
2018-02-25T08:59:36.189Z,102827
2018-02-25T09:02:04.109Z,102821
2018-02-25T09:04:32.017Z,102818
2018-02-25T09:06:59.937Z,102825
2018-02-25T09:09:27.826Z,102821
2018-02-25T09:11:55.735Z,102820
2018-02-25T09:14:23.632Z,102816
2018-02-25T09:16:51.529Z,102818
2018-02-25T09:19:19.425Z,102811
2018-02-25T09:21:47.320Z,102817
2018-02-25T09:24:15.697Z,102811
2018-02-25T09:26:43.592Z,102808
2018-02-25T09:29:11.484Z,102807
2018-02-25T09:31:39.393Z,102795
2018-02-25T09:34:07.327Z,102810
2018-02-25T09:36:35.224Z,102807
2018-02-25T09:39:03.132Z,102804
2018-02-25T09:41:31.047Z,102804
2018-02-25T09:43:58.964Z,102801
2018-02-25T09:46:26.852Z,102801
2018-02-25T09:48:54.752Z,102803
2018-02-25T09:51:22.663Z,102795
2018-02-25T09:53:50.569Z,102791
2018-02-25T09:56:18.578Z,102803
2018-02-25T09:58:46.471Z,102797
2018-02-25T10:01:14.363Z,102793
2018-02-25T10:03:42.256Z,102801
2018-02-25T10:06:10.140Z,102803
2018-02-25T10:08:38.050Z,102787
2018-02-25T10:11:05.956Z,102777
2018-02-25T10:13:33.865Z,102786
2018-02-25T10:16:01.763Z,102787
2018-02-25T10:18:29.653Z,102787
2018-02-25T10:20:57.632Z,102780
2018-02-25T10:23:25.520Z,102777
2018-02-25T10:25:53.421Z,102781
2018-02-25T10:28:21.325Z,102775
2018-02-25T10:30:49.212Z,102767
2018-02-25T10:33:17.176Z,102763
2018-02-25T10:35:45.068Z,102766
2018-02-25T10:38:12.983Z,102765
2018-02-25T10:40:40.885Z,102766
2018-02-25T10:43:08.802Z,102752
2018-02-25T10:45:36.722Z,102762
2018-02-25T10:48:04.652Z,102760
2018-02-25T10:50:32.648Z,102751
2018-02-25T10:53:00.553Z,102748
2018-02-25T10:55:28.445Z,102747
2018-02-25T10:57:56.379Z,102742
2018-02-25T11:00:30.300Z,102738
2018-02-25T11:02:58.213Z,102740
2018-02-25T11:05:26.108Z,102727
2018-02-25T11:07:54.003Z,102721
2018-02-25T11:10:21.900Z,102728
2018-02-25T11:12:49.832Z,102722
2018-02-25T11:15:17.725Z,102722
2018-02-25T11:17:45.629Z,102714
2018-02-25T11:20:13.607Z,102776
2018-02-25T11:22:41.501Z,102717
2018-02-25T11:25:09.412Z,102710
2018-02-25T11:27:37.311Z,102705
2018-02-25T11:30:05.208Z,102710
2018-02-25T11:32:33.114Z,102704
2018-02-25T11:35:07.857Z,102701
2018-02-25T11:37:35.801Z,102692
2018-02-25T11:40:03.721Z,102699
2018-02-25T11:42:31.625Z,102699
2018-02-25T11:44:59.518Z,102701
2018-02-25T11:47:27.412Z,102702
2018-02-25T11:49:55.315Z,102685
2018-02-25T11:52:23.206Z,102685
2018-02-25T11:54:51.627Z,102682
2018-02-25T11:57:19.544Z,102682
2018-02-25T11:59:47.475Z,102687
2018-02-25T12:02:15.373Z,102687
2018-02-25T12:04:43.277Z,102677
2018-02-25T12:07:11.185Z,102675
2018-02-25T12:09:39.072Z,102676
2018-02-25T12:12:06.965Z,102666
2018-02-25T12:14:34.867Z,102671
2018-02-25T12:17:02.769Z,102684
2018-02-25T12:19:30.668Z,102673
2018-02-25T12:21:58.813Z,102670
2018-02-25T12:24:26.704Z,102679
2018-02-25T12:26:54.600Z,102670
2018-02-25T12:29:23.554Z,102671
2018-02-25T12:31:51.597Z,102666
2018-02-25T12:34:19.504Z,102688
2018-02-25T12:36:47.388Z,102670
2018-02-25T12:39:15.292Z,102675
2018-02-25T12:41:43.176Z,102673
2018-02-25T12:44:11.069Z,102665
2018-02-25T12:46:38.980Z,102664
2018-02-25T12:49:06.872Z,102662
2018-02-25T12:51:34.766Z,102657
2018-02-25T12:54:02.655Z,102646
2018-02-25T12:56:31.248Z,102651
2018-02-25T12:58:59.144Z,102647
2018-02-25T13:01:27.052Z,102654
2018-02-25T13:03:54.952Z,102641
2018-02-25T13:06:22.889Z,102647
2018-02-25T13:08:51.297Z,102645
2018-02-25T13:11:19.204Z,102633
2018-02-25T13:13:47.101Z,102635
2018-02-25T13:16:15.013Z,102638
2018-02-25T13:18:42.933Z,102675
2018-02-25T13:21:10.848Z,102621
2018-02-25T13:23:38.821Z,102645
2018-02-25T13:26:06.730Z,102616
2018-02-25T13:28:34.622Z,102615
2018-02-25T13:31:02.532Z,102625
2018-02-25T13:33:30.429Z,102629
2018-02-25T13:35:58.327Z,102625
2018-02-25T13:38:26.220Z,102618
2018-02-25T13:40:54.131Z,102615
2018-02-25T13:43:22.030Z,102620
2018-02-25T13:45:49.950Z,102607
2018-02-25T13:48:17.856Z,102611
2018-02-25T13:50:45.761Z,102614
2018-02-25T13:53:13.664Z,102617
2018-02-25T13:55:41.571Z,102614
2018-02-25T13:58:09.462Z,102614
2018-02-25T14:00:37.357Z,102624
2018-02-25T14:03:05.269Z,102583
2018-02-25T14:05:33.166Z,102622
2018-02-25T14:08:01.096Z,102614
2018-02-25T14:10:28.999Z,102625
2018-02-25T14:12:56.893Z,102633
2018-02-25T14:15:24.789Z,102615
2018-02-25T14:17:52.685Z,102617
2018-02-25T14:20:20.576Z,102607
2018-02-25T14:22:48.480Z,102616
2018-02-25T14:25:16.421Z,102615
2018-02-25T14:27:44.317Z,102614
2018-02-25T14:30:12.277Z,102614
2018-02-25T14:32:40.172Z,102605
2018-02-25T14:35:08.065Z,102614
2018-02-25T14:37:35.975Z,102607
2018-02-25T14:40:03.879Z,102611
2018-02-25T14:42:31.772Z,102600
2018-02-25T14:44:59.657Z,102617
2018-02-25T14:47:27.561Z,102615
2018-02-25T14:49:55.558Z,102609
2018-02-25T14:52:23.458Z,102603
2018-02-25T14:54:51.770Z,102608
2018-02-25T14:57:19.678Z,102600
2018-02-25T14:59:47.564Z,102602
2018-02-25T15:02:15.469Z,102601
2018-02-25T15:04:43.373Z,102598
2018-02-25T15:07:11.263Z,102598
2018-02-25T15:09:39.169Z,102598
2018-02-25T15:12:07.074Z,102600
2018-02-25T15:14:34.973Z,102611
2018-02-25T15:17:02.868Z,102602
2018-02-25T15:19:30.760Z,102599
2018-02-25T15:21:58.720Z,102595
2018-02-25T15:24:26.623Z,102602
2018-02-25T15:26:54.545Z,102596
2018-02-25T15:29:22.453Z,102596
2018-02-25T15:31:50.348Z,102581
2018-02-25T15:34:18.233Z,102594
2018-02-25T15:36:46.128Z,102585
2018-02-25T15:39:14.026Z,102583
2018-02-25T15:41:41.920Z,102589
2018-02-25T15:44:09.824Z,102591
2018-02-25T15:46:37.725Z,102585
2018-02-25T15:49:05.621Z,102589
2018-02-25T15:51:33.504Z,102584
2018-02-25T15:54:02.227Z,102583
2018-02-25T15:56:30.122Z,102586
2018-02-25T15:58:58.020Z,102587
2018-02-25T16:01:25.932Z,102593
2018-02-25T16:03:53.817Z,102596
2018-02-25T16:06:22.298Z,102586
2018-02-25T16:08:50.218Z,102596
2018-02-25T16:11:18.101Z,102602
2018-02-25T16:13:46.021Z,102597
2018-02-25T16:16:13.916Z,102593
2018-02-25T16:18:43.846Z,102592
2018-02-25T16:21:13.311Z,102591
2018-02-25T16:23:42.486Z,102588
2018-02-25T16:26:10.381Z,102601
2018-02-25T16:28:38.274Z,102593
2018-02-25T16:31:06.177Z,102595
2018-02-25T16:33:34.077Z,102594
2018-02-25T16:36:01.985Z,102608
2018-02-25T16:38:29.916Z,102596
2018-02-25T16:40:57.811Z,102596
2018-02-25T16:43:25.730Z,102606
2018-02-25T16:45:53.626Z,102600
2018-02-25T16:48:21.508Z,102598
2018-02-25T16:50:49.407Z,102605
2018-02-25T16:53:17.303Z,102605
2018-02-25T16:55:45.196Z,102613
2018-02-25T16:58:13.112Z,102608
2018-02-25T17:00:41.259Z,102610
2018-02-25T17:03:09.156Z,102612
2018-02-25T17:05:37.053Z,102615
2018-02-25T17:08:04.952Z,102608
2018-02-25T17:10:32.838Z,102619
2018-02-25T17:13:00.740Z,102615
2018-02-25T17:15:28.647Z,102623
2018-02-25T17:17:56.561Z,102625
2018-02-25T17:20:24.465Z,102628
2018-02-25T17:22:52.376Z,102630
2018-02-25T17:25:20.648Z,102619
2018-02-25T17:27:48.536Z,102634
2018-02-25T17:30:16.435Z,102629
2018-02-25T17:32:44.326Z,102625
2018-02-25T17:35:12.216Z,102630
2018-02-25T17:37:40.100Z,102639
2018-02-25T17:40:07.983Z,102634
2018-02-25T17:42:35.900Z,102631
2018-02-25T17:45:03.800Z,102631
2018-02-25T17:47:31.696Z,102621
2018-02-25T17:50:00.021Z,102626
2018-02-25T17:52:27.931Z,102626
2018-02-25T17:54:55.836Z,102620
2018-02-25T17:57:23.786Z,102623
2018-02-25T17:59:51.676Z,102619
2018-02-25T18:02:19.611Z,102631
2018-02-25T18:04:47.505Z,102619
2018-02-25T18:07:15.402Z,102624
2018-02-25T18:09:43.364Z,102622
2018-02-25T18:12:11.260Z,102631
2018-02-25T18:14:39.196Z,102621
2018-02-25T18:17:07.089Z,102624
2018-02-25T18:19:35.277Z,102626
2018-02-25T18:22:03.164Z,102620
2018-02-25T18:24:31.057Z,102631
2018-02-25T18:26:58.945Z,102607
2018-02-25T18:29:26.837Z,102615
2018-02-25T18:31:54.741Z,102612
2018-02-25T18:34:22.650Z,102623
2018-02-25T18:36:50.544Z,102620
2018-02-25T18:39:18.424Z,102612
2018-02-25T18:41:46.309Z,102620
2018-02-25T18:44:14.209Z,102621
2018-02-25T18:46:42.100Z,102624
2018-02-25T18:49:10.002Z,102628
2018-02-25T18:51:37.920Z,102628
2018-02-25T18:54:05.804Z,102628
2018-02-25T18:56:33.700Z,102631
2018-02-25T18:59:01.596Z,102645
2018-02-25T19:01:29.549Z,102635
2018-02-25T19:03:57.423Z,102627
2018-02-25T19:06:25.314Z,102626
2018-02-25T19:08:53.213Z,102626
2018-02-25T19:11:21.140Z,102623
2018-02-25T19:13:49.041Z,102623
2018-02-25T19:16:16.936Z,102618
2018-02-25T19:18:44.847Z,102615
2018-02-25T19:21:12.733Z,102621
2018-02-25T19:23:40.629Z,102621
2018-02-25T19:26:08.529Z,102622
2018-02-25T19:28:36.437Z,102631
2018-02-25T19:31:04.332Z,102628
2018-02-25T19:33:32.255Z,102644
2018-02-25T19:36:06.252Z,102641
2018-02-25T19:38:40.161Z,102642
2018-02-25T19:41:14.148Z,102644
2018-02-25T19:43:48.906Z,102648
2018-02-25T19:46:16.809Z,102630
2018-02-25T19:48:44.715Z,102642
2018-02-25T19:51:12.609Z,102641
2018-02-25T19:53:40.505Z,102650
2018-02-25T19:56:08.779Z,102641
2018-02-25T19:58:36.685Z,102628
2018-02-25T20:01:04.645Z,102633
2018-02-25T20:03:32.538Z,102625
2018-02-25T20:06:00.431Z,102629
2018-02-25T20:08:28.325Z,102641
2018-02-25T20:10:56.225Z,102642
2018-02-25T20:13:24.137Z,102642
2018-02-25T20:15:52.037Z,102642
2018-02-25T20:18:19.940Z,102638
2018-02-25T20:20:47.852Z,102634
2018-02-25T20:23:15.744Z,102640
2018-02-25T20:25:43.645Z,102638
2018-02-25T20:28:11.552Z,102647
2018-02-25T20:30:39.444Z,102641
2018-02-25T20:33:07.693Z,102642
2018-02-25T20:35:35.578Z,102635
2018-02-25T20:38:03.477Z,102632
2018-02-25T20:40:31.378Z,102633
2018-02-25T20:42:59.273Z,102645
2018-02-25T20:45:27.165Z,102651
2018-02-25T20:47:55.064Z,102648
2018-02-25T20:50:22.952Z,102642
2018-02-25T20:52:50.845Z,102647
2018-02-25T20:55:18.785Z,102640
2018-02-25T20:57:46.670Z,102638
2018-02-25T21:00:14.562Z,102638
2018-02-25T21:02:42.460Z,102638
2018-02-25T21:05:10.355Z,102638
2018-02-25T21:07:38.274Z,102640
2018-02-25T21:10:06.170Z,102638
2018-02-25T21:12:34.052Z,102619
2018-02-25T21:15:01.932Z,102633
2018-02-25T21:17:29.872Z,102640
2018-02-25T21:19:57.765Z,102639
2018-02-25T21:22:25.657Z,102640
2018-02-25T21:24:53.554Z,102639
2018-02-25T21:27:21.797Z,102639
2018-02-25T21:29:49.700Z,102638
2018-02-25T21:32:17.630Z,102650
2018-02-25T21:34:45.598Z,102642
2018-02-25T21:37:13.542Z,102651
2018-02-25T21:39:41.440Z,102649
2018-02-25T21:42:09.344Z,102641
2018-02-25T21:44:37.240Z,102647
2018-02-25T21:47:05.128Z,102642
2018-02-25T21:49:33.082Z,102640
2018-02-25T21:52:01.057Z,102639
2018-02-25T21:54:34.928Z,102633
2018-02-25T21:57:08.936Z,102643
2018-02-25T21:59:42.899Z,102643
2018-02-25T22:02:16.793Z,102639
2018-02-25T22:04:44.701Z,102639
2018-02-25T22:07:12.621Z,102645
2018-02-25T22:09:40.525Z,102644
2018-02-25T22:12:08.424Z,102639
2018-02-25T22:14:36.313Z,102634
2018-02-25T22:17:04.225Z,102628
2018-02-25T22:19:32.112Z,102639
2018-02-25T22:22:00.012Z,102625
2018-02-25T22:24:27.903Z,102623
2018-02-25T22:26:55.796Z,102633
2018-02-25T22:29:23.687Z,102630
2018-02-25T22:31:51.581Z,102623
2018-02-25T22:34:19.477Z,102623
2018-02-25T22:36:47.373Z,102625
2018-02-25T22:39:15.271Z,102633
2018-02-25T22:41:43.156Z,102619
2018-02-25T22:44:11.045Z,102621
2018-02-25T22:46:38.936Z,102628
2018-02-25T22:49:06.829Z,102632
2018-02-25T22:51:34.720Z,102626
2018-02-25T22:54:02.621Z,102619
2018-02-25T22:56:30.525Z,102628
2018-02-25T22:58:58.413Z,102631
2018-02-25T23:01:26.304Z,102633
2018-02-25T23:03:54.204Z,102643
2018-02-25T23:06:22.109Z,102646
2018-02-25T23:08:50.257Z,102642
2018-02-25T23:11:18.148Z,102647
2018-02-25T23:13:46.041Z,102643
2018-02-25T23:16:13.934Z,102643
2018-02-25T23:18:41.853Z,102634
2018-02-25T23:21:16.716Z,102632
2018-02-25T23:23:44.629Z,102631
2018-02-25T23:26:12.521Z,102634
2018-02-25T23:28:40.417Z,102635
2018-02-25T23:31:08.309Z,102630
2018-02-25T23:33:36.236Z,102639
2018-02-25T23:36:04.177Z,102632
2018-02-25T23:38:32.068Z,102632
2018-02-25T23:41:00.047Z,102633
2018-02-25T23:43:34.885Z,102633
2018-02-25T23:46:02.772Z,102631
2018-02-25T23:48:30.665Z,102641
2018-02-25T23:50:58.593Z,102633
2018-02-25T23:53:26.552Z,102647
2018-02-25T23:55:54.449Z,102632
2018-02-25T23:58:22.344Z,102630
